Ride Results

QLD State Championships (18-08-2007)
Ride distance: 160.0 km

Outcomes - QLD State Championships (18-08-2007)
Division No. of Entries Retired / DNE Completed Withdrawn Ineligible V/O Percentage Completed
HW 16 - 6 1 - 9 37.50%
MW 30 - 15 5 - 10 50.00%
LW 18 - 7 2 - 9 38.89%
JN 12 - 9 - - 3 75.00%
Totals 76 - 37 8 - 31 48.68%
Results - QLD State Championships (18-08-2007)
No. Rider Horse Place Time Leg Speeds Total
Km/Hr
H/R bpm
Heavyweight
102 Mark Nimon Abbeywood Solitare 1 (BC) 11:14:00 17.2, 14.7, 14.9, 12.1, 11.1 14.24 34, 46, 51, 52, 50, 49 (Avg:49)
110 Peter Birch Hillbrae May 2 11:32:00 15.5, 14.9, 15.6, 11.8, 10.4 13.87 26, 42, 46, 48, 44, 49 (Avg:45)
72 Selwyn Nix Dunbar Mahadik 3 11:38:00 14.8, 13.3, 14.5, 12.7, 12.6 13.75 30, 37, 38, 49, 45, 46 (Avg:43)
118 Steve Swan Longrun Domino 4 13:46:00 14.2, 14.3, 10.6, 9.1, 9.5 11.62 28, 44, 32, 48, 53, 47 (Avg:44)
86 Greg Garred Shannonwood Sub 5 14:25:00 13.4, 11.2, 11.1, 9.7, 9.2 11.10 30, 44, 47, 48, 49, 52 (Avg:48)
96 Peter Toft Electra BBP Murdoch 6 14:26:00 13.2, 10.9, 12.8, 7.7, 11.2 11.09 36, 41, 43, 46, 52, 46 (Avg:45)
56 John Dugan Performance Park Lady Kharisma Lame L4 0:00:00 13.2, 12.9, 8.8, 8.8 - 30, 36, 43, 44, 46 (Avg:42)
90 Matthew Gadsby Sasam Withdrawn L4 0:00:00 - - 33, 47, 47, 56, 48 (Avg:49)
74 Anthony Caslin Timeless Lame L3 0:00:00 16.7, 14.5, 16.8 - 36, 42, 44, 52 (Avg:46)
91 Stephen Harris Kasban Pierre Lame L3 0:00:00 14.1, 12.0, 8.3 - 35, 44, 39, 55 (Avg:46)
65 Ricky Petersen Ashraf Sparkling Polaris Lame L3 0:00:00 14.0, 12.0, 8.7 - 44, 40, 57, 56 (Avg:51)
115 Matt Sample Mingara Samson Lame L3 0:00:00 19.1, 17.2, 16.8 - 34, 48, 47, 52 (Avg:49)
61 Alwyn Torenbeek Mary-Anne Lame L3 0:00:00 16.7, 15.0, 14.6 - 34, 40, 39, 41 (Avg:40)
89 Paul Lengronne Tierview Feather Danczer Lame L2 0:00:00 14.1, 12.4 - 32, 51, 49 (Avg:50)
127 Shimpei Miyamoto Aloha Millennium Metabolics severe L2 0:00:00 12.1, 10.2 - 31, 44, 40 (Avg:42)
80 Noel Weismann Hirstglen Conquistador Heart Rate L1 0:00:00 13.3 - 38, 68 (Avg:68)
Middleweight
81 Donna Brooker Hirstglen Fargo 1 8:53:00 17.2, 15.6, 18.3, 20.7, 21.8 18.01 37, 44, 48, 49, 52, 52 (Avg:49)
119 Brook Sample Carnarvon Cavalier 2 (BC) 9:04:00 19.1, 17.2, 16.8, 16.7, 18.1 17.65 27, 37, 39, 39, 44, 42 (Avg:40)
70 Judith Burton Woodbourne Ruby 3 10:41:00 17.6, 13.5, 15.5, 13.9, 13.9 14.98 29, 44, 48, 44, 50, 49 (Avg:47)
52 Melissa Longhurst Kitt 4 10:43:00 15.4, 16.5, 14.5, 12.6, 15.1 14.93 30, 40, 44, 48, 50, 48 (Avg:46)
114 Bridget Nottle Genet Zac 4 10:43:00 15.5, 15.1, 14.0, 14.7, 15.1 14.93 33, 42, 54, 45, 47, 49 (Avg:47)
69 Wayne McKinnon Dunbar Lexus 6 10:44:00 16.7, 14.5, 16.8, 13.4, 11.9 14.91 36, 40, 48, 47, 45, 52 (Avg:46)
62 Kelsey Irvine Pardon 7 11:14:00 16.9, 14.9, 12.2, 16.5, 11.0 14.24 32, 48, 52, 55, 55, 56 (Avg:53)
59 Heather Roberts Bagherra Bethany 8 11:34:00 17.6, 14.4, 14.9, 10.1, 11.6 13.83 41, 40, 47, 50, 50, 49 (Avg:47)
64 Terrence Weier Crystabarbara 9 12:07:00 15.3, 11.3, 14.1, 13.2, 12.1 13.20 38, 48, 45, 46, 46, 48 (Avg:46)
71 Carolyn Strahan Ashraf Sparkling Panache 10 12:25:00 15.3, 15.3, 12.4, 12.2, 8.6 12.89 16, 48, 48, 55, 60, 56 (Avg:53)
82 Vanessa Tiffen Hirstglen Mustang Sally 11 12:43:00 13.3, 12.4, 12.5, 12.6, 11.4 12.58 36, 52, 52, 50, 53, 58 (Avg:53)
77 Takeshi Ito Splendacrest Perfection 12 13:49:00 12.9, 13.2, 9.7, 9.8, 13.1 11.58 36, 42, 50, 53, 58, 55 (Avg:51)
107 Albie Knight Alhambra Troubador 12 13:49:00 13.0, 13.1, 9.7, 9.8, 13.1 11.58 27, 45, 44, 45, 50, 50 (Avg:46)
98 Louis Botha Alnotarj Zakov 14 13:58:00 12.4, 11.1, 9.8, 12.1, 12.9 11.46 36, 46, 56, 56, 52, 52 (Avg:52)
87 Dale Hargreaves Deep Forest Contest 15 13:59:00 14.3, 12.2, 9.4, 9.9, 11.7 11.44 30, 43, 44, 54, 50, 55 (Avg:49)
67 Stephen Gray Raaward Samaya Heart Rate L5 0:00:00 19.1, 18.9, 15.9, 16.4, 15.5 - 40, 44, 51, 56, 56, 68 (Avg:55)
116 Yukio Yanadae Barbarella Lame L5 0:00:00 12.1, 10.2, 9.3, 10.9, 10.1 - 32, 42, 41, 39, 46, 48 (Avg:43)
57 Dean Chamberlain Zara Farm Shadasj Lame L4 0:00:00 15.4, 12.7, 12.7, 12.5 - 34, 46, 43, 46, 52 (Avg:46)
100 Belinda Quirk Riversleigh Rage Lame L4 0:00:00 15.4, 15.3, 12.3, 12.3 - 37, 43, 46, 51, 55 (Avg:48)
105 Robert Sutton Zenith Park Quigley Lame L4 0:00:00 15.4, 17.5, 18.3, 19.0 - 36, 42, 48, 49, 54 (Avg:48)
113 Julie Kemp Al Baraq Lame L3 0:00:00 14.2, 14.3, 10.6 - 31, 42, 42, 50 (Avg:44)
60 Bill Ward Ubejane Lame L3 0:00:00 15.4, 12.7, 12.7 - 32, 48, 48, 55 (Avg:50)
122 Graysen Clarke Splendacrest Dryad Lame L2 0:00:00 13.2, 11.3 - 30, 46, 55 (Avg:50)
121 Robyn Edwards Lusitania Withdrawn L2 0:00:00 - - 34, 41, 50 (Avg:45)
85 Kathleen Roberts Shannonwood Ezar Withdrawn L2 0:00:00 - - 24, 39, 41 (Avg:40)
92 Jen Weise Matta Mia Diheb Lame L2 0:00:00 12.4, 12.5 - 32, 40, 40 (Avg:40)
123 Jo Weismann Esau Withdrawn L2 0:00:00 - - 36, 48, 42 (Avg:45)
106 Aanja Hamelink Kilkivan Msalute Withdrawn L1 0:00:00 - - 44, 44 (Avg:44)
88 Marion Lengronne Midu Kaleisha Heart Rate L1 0:00:00 14.1 - 32, 60 (Avg:60)
79 Shigeru Ogawa Keisha Withdrawn L1 0:00:00 - - 33, 34 (Avg:34)
Lightweight
103 Sarah Love Dmar Dancing Diplomat 1 (BC) 11:34:00 15.5, 13.9, 13.7, 12.1, 13.0 13.83 33, 48, 46, 48, 50, 47 (Avg:47)
53 Corrine Rees Hillbrae Kazlad 2 11:38:00 14.3, 14.1, 14.1, 12.7, 12.6 13.75 39, 46, 44, 51, 53, 56 (Avg:50)
51 Karen Winkel Belgari Bentley 3 11:57:00 15.3, 15.4, 12.3, 12.3, 10.7 13.39 28, 43, 51, 51, 50, 51 (Avg:49)
111 Christine Barlow Sa-har Shetari 4 13:46:00 13.4, 12.5, 12.4, 8.6, 10.6 11.62 40, 48, 40, 53, 53, 56 (Avg:50)
78 Margaret Harvey Banbra Shadow 5 13:51:00 14.0, 11.6, 11.6, 9.6, 10.1 11.55 29, 45, 43, 44, 42, 47 (Avg:44)
97 Karen Trundell Rodborough Eclipse 6 14:25:00 13.4, 11.2, 11.1, 9.7, 9.2 11.10 38, 42, 40, 42, 44, 41 (Avg:41)
117 Saasha Grogan Murland Park Mikahla 7 15:12:00 12.1, 10.2, 9.3, 10.9, 10.1 10.53 32, 39, 43, 42, 46, 45 (Avg:43)
101 Clare Fleming Birramalee Queen of Hearts Lame L5 0:00:00 13.8, 12.9, 12.2, 11.9, 8.5 - 38, 46, 44, 46, 47, 46 (Avg:45)
58 Annette Chamberlain Sir Ninian Withdrawn L4 0:00:00 - - 33, 38, 41, 43, 48 (Avg:42)
84 Bobbi Lochtenberg Matta Mia Dollar Lame L4 0:00:00 13.7, 13.0, 12.2, 7.2 - 37, 47, 48, 51, 58 (Avg:51)
75 Sachiko Murai Mt Eerwah Silver Mariner Lame L4 0:00:00 12.9, 13.2, 9.7, 9.8 - 31, 38, 45, 49, 47 (Avg:44)
63 Della Weier Kahshah Lame L4 0:00:00 14.0, 11.5, 12.4, 12.0 - 35, 43, 44, 41, 43 (Avg:42)
73 Carly Nix Bint Liberty Lame L3 0:00:00 13.4, 13.0, 11.8 - 36, 50, 49, 49 (Avg:49)
95 Brooke Warner Blue Bronco Lame L3 0:00:00 13.2, 10.5, 9.8 - 31, 43, 44, 59 (Avg:48)
93 Julie Fletcher Hillbrae Garnet Lame L2 0:00:00 12.6, 11.0 - 26, 34, 39 (Avg:36)
68 Anette Renneflott Dunbar Aramis Metabolics severe L2 0:00:00 16.7, 12.7 - 35, 41, 48 (Avg:44)
109 Terri Anderson Hillbrae Kaszan Withdrawn L1 0:00:00 - - 37, 40 (Avg:40)
120 Jeanna Maher Red Gum Trinket Lame L1 0:00:00 13.8 - 33, 40 (Avg:40)
Junior
99 Leila Callander Ashwind 1 (BC) 11:15:00 15.3, 13.4, 13.8, 13.6, 14.9 14.22 31, 44, 52, 48, 46, 46 (Avg:47)
104 Amaya Thomas Abbeywood Dallas 2 11:57:00 15.3, 15.3, 12.4, 12.3, 10.7 13.39 31, 41, 46, 45, 52, 47 (Avg:46)
83 Harlee McCarthy Hirstglen Texas Rose 3 12:43:00 13.3, 12.4, 12.5, 12.6, 11.4 12.58 36, 41, 49, 50, 48, 45 (Avg:46)
66 Brianna Weier Thalara 4 13:04:00 14.0, 11.5, 12.4, 12.0, 10.6 12.24 36, 46, 46, 47, 54, 53 (Avg:49)
108 David Anderson Jnr Tobinlee Ishmale 5 13:59:00 14.1, 12.4, 9.4, 9.9, 11.7 11.44 32, 40, 48, 52, 49, 47 (Avg:47)
94 Alexandra Toft Bramall Jazzmin 6 14:26:00 13.2, 10.9, 12.8, 7.7, 11.2 11.09 30, 40, 44, 48, 54, 44 (Avg:46)
55 Ingrid Ambrosiussen Shanti 7 14:55:00 9.3, 11.4, 10.6, 10.6, 13.3 10.73 26, 38, 41, 45, 42, 46 (Avg:42)
54 Tarnia Kittel Raaward Channelle 7 14:55:00 9.2, 11.6, 10.6, 10.6, 13.3 10.73 40, 41, 48, 48, 49, 50 (Avg:47)
126 Tasha Jeremy Eastwinds Song of Joy 9 15:12:00 12.3, 10.1, 10.5, 9.2, 10.1 10.53 44, 54, 53, 53, 56, 55 (Avg:54)
124 Jasmine Shields Woodbourne Betty Lame L5 0:00:00 13.0, 13.1, 9.7, 9.8, 9.9 - 38, 50, 48, 52, 49, 57 (Avg:51)
125 Jessyca Dakin Claralee Silverdo Lame L4 0:00:00 16.7, 15.0, 14.6, 12.5 - 34, 51, 48, 54, 53 (Avg:51)
112 Lisa Stoffel Miss Matawhero Lame L1 0:00:00 12.4 - 30, 41 (Avg:41)